sensor_id;sensor_type;location;lat;lon;timestamp;temperature;humidity
79026;DHT22;71097;44.760;37.726;2023-08-21T00:00:56;27.49;35.89
79026;DHT22;71097;44.760;37.726;2023-08-21T00:01:59;27.53;35.68
79026;DHT22;71097;44.760;37.726;2023-08-21T00:03:03;27.45;35.49
79026;DHT22;71097;44.760;37.726;2023-08-21T00:04:05;27.45;34.94
79026;DHT22;71097;44.760;37.726;2023-08-21T00:05:08;27.39;35.53
79026;DHT22;71097;44.760;37.726;2023-08-21T00:06:12;27.28;35.25
79026;DHT22;71097;44.760;37.726;2023-08-21T00:07:14;27.29;35.21
79026;DHT22;71097;44.760;37.726;2023-08-21T00:08:16;27.27;35.40
79026;DHT22;71097;44.760;37.726;2023-08-21T00:09:17;27.29;34.92
79026;DHT22;71097;44.760;37.726;2023-08-21T00:10:19;27.28;35.60
79026;DHT22;71097;44.760;37.726;2023-08-21T00:11:21;27.25;35.53
79026;DHT22;71097;44.760;37.726;2023-08-21T00:12:24;27.23;35.51
79026;DHT22;71097;44.760;37.726;2023-08-21T00:13:25;27.25;34.60
79026;DHT22;71097;44.760;37.726;2023-08-21T00:14:27;27.28;34.61
79026;DHT22;71097;44.760;37.726;2023-08-21T00:15:28;27.35;34.56
79026;DHT22;71097;44.760;37.726;2023-08-21T00:16:33;27.32;34.47
79026;DHT22;71097;44.760;37.726;2023-08-21T00:17:38;27.35;34.95
79026;DHT22;71097;44.760;37.726;2023-08-21T00:18:40;27.30;34.98
79026;DHT22;71097;44.760;37.726;2023-08-21T00:19:41;27.32;34.57
79026;DHT22;71097;44.760;37.726;2023-08-21T00:20:43;27.29;34.55
79026;DHT22;71097;44.760;37.726;2023-08-21T00:21:45;27.28;34.55
79026;DHT22;71097;44.760;37.726;2023-08-21T00:22:47;27.25;34.15
79026;DHT22;71097;44.760;37.726;2023-08-21T00:23:48;27.29;34.28
79026;DHT22;71097;44.760;37.726;2023-08-21T00:24:50;27.30;34.26
79026;DHT22;71097;44.760;37.726;2023-08-21T00:25:51;27.29;34.12
79026;DHT22;71097;44.760;37.726;2023-08-21T00:26:53;27.32;34.34
79026;DHT22;71097;44.760;37.726;2023-08-21T00:27:55;27.34;34.43
79026;DHT22;71097;44.760;37.726;2023-08-21T00:28:56;27.36;34.28
79026;DHT22;71097;44.760;37.726;2023-08-21T00:30:00;27.31;34.56
79026;DHT22;71097;44.760;37.726;2023-08-21T00:31:03;27.30;34.08
79026;DHT22;71097;44.760;37.726;2023-08-21T00:32:05;27.32;34.14
79026;DHT22;71097;44.760;37.726;2023-08-21T00:33:08;27.31;34.22
79026;DHT22;71097;44.760;37.726;2023-08-21T00:34:12;27.37;34.53
79026;DHT22;71097;44.760;37.726;2023-08-21T00:35:14;27.32;34.79
79026;DHT22;71097;44.760;37.726;2023-08-21T00:36:16;27.38;34.47
79026;DHT22;71097;44.760;37.726;2023-08-21T00:37:17;27.29;34.25
79026;DHT22;71097;44.760;37.726;2023-08-21T00:38:19;27.31;34.44
79026;DHT22;71097;44.760;37.726;2023-08-21T00:39:21;27.25;34.57
79026;DHT22;71097;44.760;37.726;2023-08-21T00:40:25;27.23;35.15
79026;DHT22;71097;44.760;37.726;2023-08-21T00:41:27;27.22;35.05
79026;DHT22;71097;44.760;37.726;2023-08-21T00:42:29;27.22;35.01
79026;DHT22;71097;44.760;37.726;2023-08-21T00:43:31;27.23;34.52
79026;DHT22;71097;44.760;37.726;2023-08-21T00:44:32;27.26;34.44
79026;DHT22;71097;44.760;37.726;2023-08-21T00:45:34;27.25;35.09
79026;DHT22;71097;44.760;37.726;2023-08-21T00:46:36;27.22;35.48
79026;DHT22;71097;44.760;37.726;2023-08-21T00:47:37;27.21;35.08
79026;DHT22;71097;44.760;37.726;2023-08-21T00:48:39;27.20;35.18
79026;DHT22;71097;44.760;37.726;2023-08-21T00:49:42;27.14;35.47
79026;DHT22;71097;44.760;37.726;2023-08-21T00:50:45;27.06;35.56
79026;DHT22;71097;44.760;37.726;2023-08-21T00:51:48;27.06;35.21
79026;DHT22;71097;44.760;37.726;2023-08-21T00:52:51;27.02;35.60
79026;DHT22;71097;44.760;37.726;2023-08-21T00:53:53;27.05;35.49
79026;DHT22;71097;44.760;37.726;2023-08-21T00:54:57;27.07;35.25
79026;DHT22;71097;44.760;37.726;2023-08-21T00:55:59;27.11;35.53
79026;DHT22;71097;44.760;37.726;2023-08-21T00:57:01;27.04;36.01
79026;DHT22;71097;44.760;37.726;2023-08-21T00:58:06;27.02;35.89
79026;DHT22;71097;44.760;37.726;2023-08-21T00:59:12;26.99;35.81
79026;DHT22;71097;44.760;37.726;2023-08-21T01:00:15;27.02;36.18
79026;DHT22;71097;44.760;37.726;2023-08-21T01:01:24;27.09;35.46
79026;DHT22;71097;44.760;37.726;2023-08-21T01:02:32;27.05;35.85
79026;DHT22;71097;44.760;37.726;2023-08-21T01:03:34;27.01;36.01
79026;DHT22;71097;44.760;37.726;2023-08-21T01:04:36;26.96;35.82
79026;DHT22;71097;44.760;37.726;2023-08-21T01:05:38;26.94;36.01
79026;DHT22;71097;44.760;37.726;2023-08-21T01:06:40;26.93;35.37
79026;DHT22;71097;44.760;37.726;2023-08-21T01:07:52;26.94;35.26
79026;DHT22;71097;44.760;37.726;2023-08-21T01:09:03;26.91;35.56
79026;DHT22;71097;44.760;37.726;2023-08-21T01:10:14;26.92;35.60
79026;DHT22;71097;44.760;37.726;2023-08-21T01:11:42;26.93;35.79
79026;DHT22;71097;44.760;37.726;2023-08-21T01:13:07;26.96;35.75
79026;DHT22;71097;44.760;37.726;2023-08-21T01:14:33;26.95;36.14
79026;DHT22;71097;44.760;37.726;2023-08-21T01:15:39;26.91;35.30
79026;DHT22;71097;44.760;37.726;2023-08-21T01:16:42;26.91;36.14
79026;DHT22;71097;44.760;37.726;2023-08-21T01:17:46;26.92;36.37
79026;DHT22;71097;44.760;37.726;2023-08-21T01:18:49;26.92;35.16
79026;DHT22;71097;44.760;37.726;2023-08-21T01:19:52;26.93;35.97
79026;DHT22;71097;44.760;37.726;2023-08-21T01:20:55;26.82;36.44
79026;DHT22;71097;44.760;37.726;2023-08-21T01:21:59;26.83;36.01
79026;DHT22;71097;44.760;37.726;2023-08-21T01:23:06;26.81;35.77
79026;DHT22;71097;44.760;37.726;2023-08-21T01:24:08;26.78;36.30
79026;DHT22;71097;44.760;37.726;2023-08-21T01:25:10;26.72;37.25
79026;DHT22;71097;44.760;37.726;2023-08-21T01:26:12;26.67;37.04
79026;DHT22;71097;44.760;37.726;2023-08-21T01:27:14;26.62;36.70
79026;DHT22;71097;44.760;37.726;2023-08-21T01:28:17;26.60;37.41
79026;DHT22;71097;44.760;37.726;2023-08-21T01:29:19;26.54;36.69
79026;DHT22;71097;44.760;37.726;2023-08-21T01:30:21;26.55;36.92
79026;DHT22;71097;44.760;37.726;2023-08-21T01:31:31;26.58;36.64
79026;DHT22;71097;44.760;37.726;2023-08-21T01:33:05;26.55;37.33
79026;DHT22;71097;44.760;37.726;2023-08-21T01:34:11;26.47;37.24
79026;DHT22;71097;44.760;37.726;2023-08-21T01:35:15;26.47;37.08
79026;DHT22;71097;44.760;37.726;2023-08-21T01:36:17;26.49;36.69
79026;DHT22;71097;44.760;37.726;2023-08-21T01:37:19;26.51;36.95
79026;DHT22;71097;44.760;37.726;2023-08-21T01:38:25;26.50;36.46
79026;DHT22;71097;44.760;37.726;2023-08-21T01:39:27;26.54;36.81
79026;DHT22;71097;44.760;37.726;2023-08-21T01:40:30;26.54;36.67
79026;DHT22;71097;44.760;37.726;2023-08-21T01:41:34;26.49;36.36
79026;DHT22;71097;44.760;37.726;2023-08-21T01:42:36;26.50;37.19
79026;DHT22;71097;44.760;37.726;2023-08-21T01:43:38;26.43;37.06
79026;DHT22;71097;44.760;37.726;2023-08-21T01:44:40;26.39;37.08
79026;DHT22;71097;44.760;37.726;2023-08-21T01:45:42;26.39;37.09
79026;DHT22;71097;44.760;37.726;2023-08-21T01:46:44;26.38;37.98
79026;DHT22;71097;44.760;37.726;2023-08-21T01:47:47;26.32;38.57
79026;DHT22;71097;44.760;37.726;2023-08-21T01:48:52;26.22;38.40
79026;DHT22;71097;44.760;37.726;2023-08-21T01:49:55;26.19;38.70
79026;DHT22;71097;44.760;37.726;2023-08-21T01:50:57;26.18;38.84
79026;DHT22;71097;44.760;37.726;2023-08-21T01:51:58;26.13;38.78
79026;DHT22;71097;44.760;37.726;2023-08-21T01:53:00;26.15;37.45
79026;DHT22;71097;44.760;37.726;2023-08-21T01:54:04;26.15;38.62
79026;DHT22;71097;44.760;37.726;2023-08-21T01:55:06;26.13;39.15
79026;DHT22;71097;44.760;37.726;2023-08-21T01:56:12;26.12;39.37
79026;DHT22;71097;44.760;37.726;2023-08-21T01:57:16;26.06;38.96
79026;DHT22;71097;44.760;37.726;2023-08-21T01:58:18;26.03;39.68
79026;DHT22;71097;44.760;37.726;2023-08-21T01:59:21;25.99;37.94
79026;DHT22;71097;44.760;37.726;2023-08-21T02:00:25;26.02;40.08
79026;DHT22;71097;44.760;37.726;2023-08-21T02:01:27;25.99;38.80
79026;DHT22;71097;44.760;37.726;2023-08-21T02:02:28;26.04;38.76
79026;DHT22;71097;44.760;37.726;2023-08-21T02:03:33;26.04;38.14
79026;DHT22;71097;44.760;37.726;2023-08-21T02:04:35;26.05;39.54
79026;DHT22;71097;44.760;37.726;2023-08-21T02:05:39;25.99;39.02
79026;DHT22;71097;44.760;37.726;2023-08-21T02:06:41;25.99;38.75
79026;DHT22;71097;44.760;37.726;2023-08-21T02:07:45;25.99;38.91
79026;DHT22;71097;44.760;37.726;2023-08-21T02:08:47;26.02;40.31
79026;DHT22;71097;44.760;37.726;2023-08-21T02:09:48;25.91;39.83
79026;DHT22;71097;44.760;37.726;2023-08-21T02:10:50;25.88;39.26
79026;DHT22;71097;44.760;37.726;2023-08-21T02:11:52;25.92;39.78
79026;DHT22;71097;44.760;37.726;2023-08-21T02:12:54;25.89;38.30
79026;DHT22;71097;44.760;37.726;2023-08-21T02:13:55;25.90;38.59
79026;DHT22;71097;44.760;37.726;2023-08-21T02:14:57;25.89;40.13
79026;DHT22;71097;44.760;37.726;2023-08-21T02:15:59;25.87;40.01
79026;DHT22;71097;44.760;37.726;2023-08-21T02:17:01;25.88;39.35
79026;DHT22;71097;44.760;37.726;2023-08-21T02:18:03;25.87;40.07
79026;DHT22;71097;44.760;37.726;2023-08-21T02:19:05;25.86;39.94
79026;DHT22;71097;44.760;37.726;2023-08-21T02:20:07;25.86;40.12
79026;DHT22;71097;44.760;37.726;2023-08-21T02:21:10;25.82;39.71
79026;DHT22;71097;44.760;37.726;2023-08-21T02:22:11;25.80;40.31
79026;DHT22;71097;44.760;37.726;2023-08-21T02:23:16;25.78;39.39
79026;DHT22;71097;44.760;37.726;2023-08-21T02:24:18;25.80;39.63
79026;DHT22;71097;44.760;37.726;2023-08-21T02:25:19;25.83;39.37
79026;DHT22;71097;44.760;37.726;2023-08-21T02:26:22;25.82;39.66
79026;DHT22;71097;44.760;37.726;2023-08-21T02:27:25;25.79;38.82
79026;DHT22;71097;44.760;37.726;2023-08-21T02:28:26;25.77;39.67
79026;DHT22;71097;44.760;37.726;2023-08-21T02:29:28;25.77;39.51
79026;DHT22;71097;44.760;37.726;2023-08-21T02:30:30;25.76;38.98
79026;DHT22;71097;44.760;37.726;2023-08-21T02:31:32;25.76;40.52
79026;DHT22;71097;44.760;37.726;2023-08-21T02:32:34;25.65;40.39
79026;DHT22;71097;44.760;37.726;2023-08-21T02:33:35;25.59;41.18
79026;DHT22;71097;44.760;37.726;2023-08-21T02:34:37;25.51;41.21
79026;DHT22;71097;44.760;37.726;2023-08-21T02:35:40;25.49;41.15
79026;DHT22;71097;44.760;37.726;2023-08-21T02:36:42;25.47;40.75
79026;DHT22;71097;44.760;37.726;2023-08-21T02:37:44;25.43;40.77
79026;DHT22;71097;44.760;37.726;2023-08-21T02:38:45;25.48;39.71
79026;DHT22;71097;44.760;37.726;2023-08-21T02:39:47;25.48;39.65
79026;DHT22;71097;44.760;37.726;2023-08-21T02:40:49;25.48;41.13
79026;DHT22;71097;44.760;37.726;2023-08-21T02:41:50;25.50;39.60
79026;DHT22;71097;44.760;37.726;2023-08-21T02:42:52;25.51;39.21
79026;DHT22;71097;44.760;37.726;2023-08-21T02:43:53;25.52;40.07
79026;DHT22;71097;44.760;37.726;2023-08-21T02:44:56;25.58;39.14
79026;DHT22;71097;44.760;37.726;2023-08-21T02:45:59;25.59;38.32
79026;DHT22;71097;44.760;37.726;2023-08-21T02:47:00;25.65;37.89
79026;DHT22;71097;44.760;37.726;2023-08-21T02:48:02;25.77;37.19
79026;DHT22;71097;44.760;37.726;2023-08-21T02:49:04;25.88;35.82
79026;DHT22;71097;44.760;37.726;2023-08-21T02:50:07;26.02;35.93
79026;DHT22;71097;44.760;37.726;2023-08-21T02:51:09;26.12;36.08
79026;DHT22;71097;44.760;37.726;2023-08-21T02:52:10;26.18;36.35
79026;DHT22;71097;44.760;37.726;2023-08-21T02:53:12;26.21;36.79
79026;DHT22;71097;44.760;37.726;2023-08-21T02:54:13;26.21;36.14
79026;DHT22;71097;44.760;37.726;2023-08-21T02:55:15;26.26;36.47
79026;DHT22;71097;44.760;37.726;2023-08-21T02:56:17;26.28;36.85
79026;DHT22;71097;44.760;37.726;2023-08-21T02:57:18;26.26;36.96
79026;DHT22;71097;44.760;37.726;2023-08-21T02:58:23;26.24;36.94
79026;DHT22;71097;44.760;37.726;2023-08-21T02:59:25;26.28;37.24
79026;DHT22;71097;44.760;37.726;2023-08-21T03:00:27;26.28;37.08
79026;DHT22;71097;44.760;37.726;2023-08-21T03:01:29;26.30;37.60
79026;DHT22;71097;44.760;37.726;2023-08-21T03:02:31;26.23;36.93
79026;DHT22;71097;44.760;37.726;2023-08-21T03:03:34;26.26;37.24
79026;DHT22;71097;44.760;37.726;2023-08-21T03:04:37;26.25;36.83
79026;DHT22;71097;44.760;37.726;2023-08-21T03:05:41;26.26;38.31
79026;DHT22;71097;44.760;37.726;2023-08-21T03:06:43;26.26;38.20
79026;DHT22;71097;44.760;37.726;2023-08-21T03:07:45;26.22;37.85
79026;DHT22;71097;44.760;37.726;2023-08-21T03:08:46;26.23;36.27
79026;DHT22;71097;44.760;37.726;2023-08-21T03:09:49;26.32;37.49
79026;DHT22;71097;44.760;37.726;2023-08-21T03:10:51;26.33;36.34
79026;DHT22;71097;44.760;37.726;2023-08-21T03:11:53;26.31;37.83
79026;DHT22;71097;44.760;37.726;2023-08-21T03:12:55;26.28;36.91
79026;DHT22;71097;44.760;37.726;2023-08-21T03:13:57;26.34;37.18
79026;DHT22;71097;44.760;37.726;2023-08-21T03:14:58;26.36;38.88
79026;DHT22;71097;44.760;37.726;2023-08-21T03:16:00;26.34;38.97
79026;DHT22;71097;44.760;37.726;2023-08-21T03:17:02;26.32;37.92
79026;DHT22;71097;44.760;37.726;2023-08-21T03:18:04;26.33;38.38
79026;DHT22;71097;44.760;37.726;2023-08-21T03:19:07;26.32;37.38
79026;DHT22;71097;44.760;37.726;2023-08-21T03:20:10;26.35;36.56
79026;DHT22;71097;44.760;37.726;2023-08-21T03:21:12;26.39;37.98
79026;DHT22;71097;44.760;37.726;2023-08-21T03:22:14;26.41;37.98
79026;DHT22;71097;44.760;37.726;2023-08-21T03:23:16;26.50;37.88
79026;DHT22;71097;44.760;37.726;2023-08-21T03:24:18;26.49;36.71
79026;DHT22;71097;44.760;37.726;2023-08-21T03:25:20;26.52;36.18
79026;DHT22;71097;44.760;37.726;2023-08-21T03:26:22;26.57;35.96
79026;DHT22;71097;44.760;37.726;2023-08-21T03:27:25;26.66;35.54
79026;DHT22;71097;44.760;37.726;2023-08-21T03:28:27;26.78;35.63
79026;DHT22;71097;44.760;37.726;2023-08-21T03:29:29;26.80;35.60
79026;DHT22;71097;44.760;37.726;2023-08-21T03:30:34;26.85;34.72
79026;DHT22;71097;44.760;37.726;2023-08-21T03:31:38;26.98;34.45
79026;DHT22;71097;44.760;37.726;2023-08-21T03:32:41;27.01;34.62
79026;DHT22;71097;44.760;37.726;2023-08-21T03:33:43;27.11;34.69
79026;DHT22;71097;44.760;37.726;2023-08-21T03:34:45;27.17;34.87
79026;DHT22;71097;44.760;37.726;2023-08-21T03:35:53;27.21;34.62
79026;DHT22;71097;44.760;37.726;2023-08-21T03:36:55;27.27;35.13
79026;DHT22;71097;44.760;37.726;2023-08-21T03:37:59;27.31;34.73
79026;DHT22;71097;44.760;37.726;2023-08-21T03:39:03;27.37;34.44
79026;DHT22;71097;44.760;37.726;2023-08-21T03:40:10;27.39;34.54
79026;DHT22;71097;44.760;37.726;2023-08-21T03:41:12;27.52;33.77
79026;DHT22;71097;44.760;37.726;2023-08-21T03:42:17;27.57;34.92
79026;DHT22;71097;44.760;37.726;2023-08-21T03:43:20;27.67;34.89
79026;DHT22;71097;44.760;37.726;2023-08-21T03:44:22;27.76;34.30
79026;DHT22;71097;44.760;37.726;2023-08-21T03:45:23;27.82;34.29
79026;DHT22;71097;44.760;37.726;2023-08-21T03:46:29;27.91;34.01
79026;DHT22;71097;44.760;37.726;2023-08-21T03:47:31;28.03;33.87
79026;DHT22;71097;44.760;37.726;2023-08-21T03:48:37;28.20;32.84
79026;DHT22;71097;44.760;37.726;2023-08-21T03:49:40;28.37;32.83
79026;DHT22;71097;44.760;37.726;2023-08-21T03:50:42;28.54;34.07
79026;DHT22;71097;44.760;37.726;2023-08-21T03:51:44;28.67;33.37
79026;DHT22;71097;44.760;37.726;2023-08-21T03:52:46;28.84;32.55
79026;DHT22;71097;44.760;37.726;2023-08-21T03:53:52;28.95;32.88
79026;DHT22;71097;44.760;37.726;2023-08-21T03:54:56;29.16;33.03
79026;DHT22;71097;44.760;37.726;2023-08-21T03:55:58;29.22;32.29
79026;DHT22;71097;44.760;37.726;2023-08-21T03:57:03;29.44;33.46
79026;DHT22;71097;44.760;37.726;2023-08-21T03:58:07;29.56;32.62
79026;DHT22;71097;44.760;37.726;2023-08-21T03:59:22;29.77;33.78
79026;DHT22;71097;44.760;37.726;2023-08-21T04:00:34;29.83;33.32
79026;DHT22;71097;44.760;37.726;2023-08-21T04:01:45;29.98;32.47
79026;DHT22;71097;44.760;37.726;2023-08-21T04:03:00;30.18;31.98
79026;DHT22;71097;44.760;37.726;2023-08-21T04:04:27;30.48;31.08
79026;DHT22;71097;44.760;37.726;2023-08-21T04:05:33;30.63;30.98
79026;DHT22;71097;44.760;37.726;2023-08-21T04:06:41;30.83;30.66
79026;DHT22;71097;44.760;37.726;2023-08-21T04:07:45;30.98;32.08
79026;DHT22;71097;44.760;37.726;2023-08-21T04:08:46;31.10;31.92
79026;DHT22;71097;44.760;37.726;2023-08-21T04:09:48;31.27;31.39
79026;DHT22;71097;44.760;37.726;2023-08-21T04:10:50;31.43;29.27
79026;DHT22;71097;44.760;37.726;2023-08-21T04:11:56;31.59;28.77
79026;DHT22;71097;44.760;37.726;2023-08-21T04:13:01;31.79;28.90
79026;DHT22;71097;44.760;37.726;2023-08-21T04:14:03;31.93;29.19
79026;DHT22;71097;44.760;37.726;2023-08-21T04:15:10;32.08;29.56
79026;DHT22;71097;44.760;37.726;2023-08-21T04:16:14;32.28;29.13
79026;DHT22;71097;44.760;37.726;2023-08-21T04:17:23;32.37;28.85
79026;DHT22;71097;44.760;37.726;2023-08-21T04:18:28;32.58;27.16
79026;DHT22;71097;44.760;37.726;2023-08-21T04:19:30;32.66;27.68
79026;DHT22;71097;44.760;37.726;2023-08-21T04:20:40;32.75;26.44
79026;DHT22;71097;44.760;37.726;2023-08-21T04:21:42;32.87;27.17
79026;DHT22;71097;44.760;37.726;2023-08-21T04:22:46;33.05;26.14
79026;DHT22;71097;44.760;37.726;2023-08-21T04:23:56;33.25;25.78
79026;DHT22;71097;44.760;37.726;2023-08-21T04:24:59;33.33;26.45
79026;DHT22;71097;44.760;37.726;2023-08-21T04:26:04;33.41;24.59
79026;DHT22;71097;44.760;37.726;2023-08-21T04:27:14;33.48;24.47
79026;DHT22;71097;44.760;37.726;2023-08-21T04:28:24;33.80;23.55
79026;DHT22;71097;44.760;37.726;2023-08-21T04:29:29;34.12;24.04
79026;DHT22;71097;44.760;37.726;2023-08-21T04:30:49;34.36;23.31
79026;DHT22;71097;44.760;37.726;2023-08-21T04:32:05;34.47;22.79
79026;DHT22;71097;44.760;37.726;2023-08-21T04:33:28;34.62;22.55
79026;DHT22;71097;44.760;37.726;2023-08-21T04:34:35;34.57;22.95
79026;DHT22;71097;44.760;37.726;2023-08-21T04:35:44;34.61;21.88
79026;DHT22;71097;44.760;37.726;2023-08-21T04:37:11;34.76;20.63
79026;DHT22;71097;44.760;37.726;2023-08-21T04:38:13;34.66;20.28
79026;DHT22;71097;44.760;37.726;2023-08-21T04:39:18;34.71;20.41
79026;DHT22;71097;44.760;37.726;2023-08-21T04:40:31;34.94;20.80
79026;DHT22;71097;44.760;37.726;2023-08-21T04:41:32;34.97;19.54
79026;DHT22;71097;44.760;37.726;2023-08-21T04:42:37;34.88;20.15
79026;DHT22;71097;44.760;37.726;2023-08-21T04:43:40;34.93;20.12
79026;DHT22;71097;44.760;37.726;2023-08-21T04:44:45;35.05;20.41
79026;DHT22;71097;44.760;37.726;2023-08-21T04:45:54;35.18;19.08
79026;DHT22;71097;44.760;37.726;2023-08-21T04:47:24;35.25;19.14
79026;DHT22;71097;44.760;37.726;2023-08-21T04:48:32;35.30;19.07
79026;DHT22;71097;44.760;37.726;2023-08-21T04:49:36;35.47;19.37
79026;DHT22;71097;44.760;37.726;2023-08-21T04:50:38;35.57;19.26
79026;DHT22;71097;44.760;37.726;2023-08-21T04:51:39;35.65;18.70
79026;DHT22;71097;44.760;37.726;2023-08-21T04:52:41;35.78;18.85
79026;DHT22;71097;44.760;37.726;2023-08-21T04:53:44;35.80;18.49
79026;DHT22;71097;44.760;37.726;2023-08-21T04:54:55;35.83;18.31
79026;DHT22;71097;44.760;37.726;2023-08-21T04:56:00;35.95;18.25
79026;DHT22;71097;44.760;37.726;2023-08-21T04:57:12;35.92;18.73
79026;DHT22;71097;44.760;37.726;2023-08-21T04:58:28;35.94;18.37
79026;DHT22;71097;44.760;37.726;2023-08-21T04:59:36;35.90;18.33
79026;DHT22;71097;44.760;37.726;2023-08-21T05:00:52;35.97;18.64
79026;DHT22;71097;44.760;37.726;2023-08-21T05:01:59;36.14;18.22
79026;DHT22;71097;44.760;37.726;2023-08-21T05:03:01;36.29;17.64
79026;DHT22;71097;44.760;37.726;2023-08-21T05:04:03;36.30;17.78
79026;DHT22;71097;44.760;37.726;2023-08-21T05:05:07;36.32;17.61
79026;DHT22;71097;44.760;37.726;2023-08-21T05:06:12;36.18;17.66
79026;DHT22;71097;44.760;37.726;2023-08-21T05:07:14;36.11;18.17
79026;DHT22;71097;44.760;37.726;2023-08-21T05:08:24;36.25;17.68
79026;DHT22;71097;44.760;37.726;2023-08-21T05:09:27;36.30;17.90
79026;DHT22;71097;44.760;37.726;2023-08-21T05:10:29;36.43;17.96
79026;DHT22;71097;44.760;37.726;2023-08-21T05:11:30;36.47;17.64
79026;DHT22;71097;44.760;37.726;2023-08-21T05:12:38;36.46;17.75
79026;DHT22;71097;44.760;37.726;2023-08-21T05:13:39;36.60;17.76
79026;DHT22;71097;44.760;37.726;2023-08-21T05:14:44;36.67;17.52
79026;DHT22;71097;44.760;37.726;2023-08-21T05:15:54;36.61;17.94
79026;DHT22;71097;44.760;37.726;2023-08-21T05:16:57;36.71;17.92
79026;DHT22;71097;44.760;37.726;2023-08-21T05:18:00;36.77;17.54
79026;DHT22;71097;44.760;37.726;2023-08-21T05:19:02;36.82;17.55
79026;DHT22;71097;44.760;37.726;2023-08-21T05:20:12;36.80;17.55
79026;DHT22;71097;44.760;37.726;2023-08-21T05:21:16;36.88;17.45
79026;DHT22;71097;44.760;37.726;2023-08-21T05:22:18;36.90;17.27
79026;DHT22;71097;44.760;37.726;2023-08-21T05:23:20;37.01;17.70
79026;DHT22;71097;44.760;37.726;2023-08-21T05:24:25;37.18;17.06
79026;DHT22;71097;44.760;37.726;2023-08-21T05:25:42;37.27;16.72
79026;DHT22;71097;44.760;37.726;2023-08-21T05:26:52;37.20;16.97
79026;DHT22;71097;44.760;37.726;2023-08-21T05:27:54;37.18;16.87
79026;DHT22;71097;44.760;37.726;2023-08-21T05:28:56;37.22;16.91
79026;DHT22;71097;44.760;37.726;2023-08-21T05:30:03;37.32;16.86
79026;DHT22;71097;44.760;37.726;2023-08-21T05:31:07;37.28;16.98
79026;DHT22;71097;44.760;37.726;2023-08-21T05:32:33;37.35;16.72
79026;DHT22;71097;44.760;37.726;2023-08-21T05:33:37;37.25;16.79
79026;DHT22;71097;44.760;37.726;2023-08-21T05:34:41;37.31;17.11
79026;DHT22;71097;44.760;37.726;2023-08-21T05:35:44;37.49;16.79
79026;DHT22;71097;44.760;37.726;2023-08-21T05:36:48;37.66;16.48
79026;DHT22;71097;44.760;37.726;2023-08-21T05:38:03;37.63;16.59
79026;DHT22;71097;44.760;37.726;2023-08-21T05:39:14;37.62;16.36
79026;DHT22;71097;44.760;37.726;2023-08-21T05:40:19;37.65;16.36
79026;DHT22;71097;44.760;37.726;2023-08-21T05:41:24;37.75;16.78
79026;DHT22;71097;44.760;37.726;2023-08-21T05:42:29;37.69;16.48
79026;DHT22;71097;44.760;37.726;2023-08-21T05:43:34;37.56;16.46
79026;DHT22;71097;44.760;37.726;2023-08-21T05:44:43;37.44;16.43
79026;DHT22;71097;44.760;37.726;2023-08-21T05:45:46;37.55;16.94
79026;DHT22;71097;44.760;37.726;2023-08-21T05:46:48;37.66;16.55
79026;DHT22;71097;44.760;37.726;2023-08-21T05:47:51;37.77;16.22
79026;DHT22;71097;44.760;37.726;2023-08-21T05:48:52;37.85;16.35
79026;DHT22;71097;44.760;37.726;2023-08-21T05:50:00;38.01;15.86
79026;DHT22;71097;44.760;37.726;2023-08-21T05:51:02;38.05;15.82
79026;DHT22;71097;44.760;37.726;2023-08-21T05:52:04;38.10;16.18
79026;DHT22;71097;44.760;37.726;2023-08-21T05:53:06;38.08;15.74
79026;DHT22;71097;44.760;37.726;2023-08-21T05:54:13;38.16;15.78
79026;DHT22;71097;44.760;37.726;2023-08-21T05:55:19;38.29;15.88
79026;DHT22;71097;44.760;37.726;2023-08-21T05:57:36;38.41;15.40
79026;DHT22;71097;44.760;37.726;2023-08-21T05:58:50;38.44;15.01
79026;DHT22;71097;44.760;37.726;2023-08-21T05:59:58;38.39;15.33
79026;DHT22;71097;44.760;37.726;2023-08-21T06:01:01;38.48;15.33
79026;DHT22;71097;44.760;37.726;2023-08-21T06:02:25;38.47;15.51
79026;DHT22;71097;44.760;37.726;2023-08-21T06:03:27;38.50;15.08
79026;DHT22;71097;44.760;37.726;2023-08-21T06:04:51;38.36;15.23
79026;DHT22;71097;44.760;37.726;2023-08-21T06:05:56;38.47;15.19
79026;DHT22;71097;44.760;37.726;2023-08-21T06:07:01;38.52;14.92
79026;DHT22;71097;44.760;37.726;2023-08-21T06:08:03;38.52;14.84
79026;DHT22;71097;44.760;37.726;2023-08-21T06:09:05;38.52;15.01
79026;DHT22;71097;44.760;37.726;2023-08-21T06:10:11;38.51;15.20
79026;DHT22;71097;44.760;37.726;2023-08-21T06:11:16;38.56;15.02
79026;DHT22;71097;44.760;37.726;2023-08-21T06:12:18;38.37;15.11
79026;DHT22;71097;44.760;37.726;2023-08-21T06:13:20;38.36;15.10
79026;DHT22;71097;44.760;37.726;2023-08-21T06:14:26;38.38;15.25
79026;DHT22;71097;44.760;37.726;2023-08-21T06:15:38;38.38;15.38
79026;DHT22;71097;44.760;37.726;2023-08-21T06:16:42;38.52;15.33
79026;DHT22;71097;44.760;37.726;2023-08-21T06:17:46;38.63;15.02
79026;DHT22;71097;44.760;37.726;2023-08-21T06:18:48;38.89;14.65
79026;DHT22;71097;44.760;37.726;2023-08-21T06:19:50;39.08;14.68
79026;DHT22;71097;44.760;37.726;2023-08-21T06:20:54;39.26;14.58
79026;DHT22;71097;44.760;37.726;2023-08-21T06:21:57;39.35;14.13
79026;DHT22;71097;44.760;37.726;2023-08-21T06:22:59;39.40;14.06
79026;DHT22;71097;44.760;37.726;2023-08-21T06:24:07;39.57;13.95
79026;DHT22;71097;44.760;37.726;2023-08-21T06:25:11;39.79;13.92
79026;DHT22;71097;44.760;37.726;2023-08-21T06:26:18;39.95;13.74
79026;DHT22;71097;44.760;37.726;2023-08-21T06:27:20;40.14;13.61
79026;DHT22;71097;44.760;37.726;2023-08-21T06:28:31;40.03;13.07
79026;DHT22;71097;44.760;37.726;2023-08-21T06:29:33;40.04;13.41
79026;DHT22;71097;44.760;37.726;2023-08-21T06:30:56;39.99;13.41
79026;DHT22;71097;44.760;37.726;2023-08-21T06:32:09;39.89;13.14
79026;DHT22;71097;44.760;37.726;2023-08-21T06:33:12;39.81;13.23
79026;DHT22;71097;44.760;37.726;2023-08-21T06:34:14;39.78;13.52
79026;DHT22;71097;44.760;37.726;2023-08-21T06:35:19;39.88;13.34
79026;DHT22;71097;44.760;37.726;2023-08-21T06:36:28;39.80;13.63
79026;DHT22;71097;44.760;37.726;2023-08-21T06:37:31;39.83;13.83
79026;DHT22;71097;44.760;37.726;2023-08-21T06:38:32;39.96;13.57
79026;DHT22;71097;44.760;37.726;2023-08-21T06:39:34;39.93;13.35
79026;DHT22;71097;44.760;37.726;2023-08-21T06:40:36;39.81;13.42
79026;DHT22;71097;44.760;37.726;2023-08-21T06:41:37;39.84;13.91
79026;DHT22;71097;44.760;37.726;2023-08-21T06:42:39;39.88;13.59